createdAt,value
2023-01-18T00:00:40.528Z,9.43
2023-01-18T00:03:13.688Z,10.05
2023-01-18T00:05:43.022Z,8.97
2023-01-18T00:08:19.371Z,9.07
2023-01-18T00:10:46.548Z,8.02
2023-01-18T00:13:14.842Z,8.82
2023-01-18T00:15:43.178Z,8.55
2023-01-18T00:18:09.913Z,8.75
2023-01-18T00:20:37.829Z,7.60
2023-01-18T00:23:04.573Z,7.60
2023-01-18T00:25:31.381Z,8.25
2023-01-18T00:27:58.164Z,8.05
2023-01-18T00:30:45.343Z,7.47
2023-01-18T00:33:12.054Z,8.43
2023-01-18T00:35:40.225Z,7.25
2023-01-18T00:38:06.954Z,8.25
2023-01-18T00:40:34.994Z,8.32
2023-01-18T00:43:22.332Z,8.27
2023-01-18T00:45:49.291Z,8.60
2023-01-18T00:48:16.091Z,8.93
2023-01-18T00:50:42.750Z,8.35
2023-01-18T00:53:09.453Z,8.38
2023-01-18T00:55:36.243Z,9.52
2023-01-18T00:58:02.929Z,8.02
2023-01-18T01:00:32.591Z,8.10
2023-01-18T01:03:00.280Z,8.80
2023-01-18T01:05:47.487Z,8.65
2023-01-18T01:08:18.921Z,9.05
2023-01-18T01:10:48.520Z,8.35
2023-01-18T01:13:37.865Z,8.18
2023-01-18T01:16:27.352Z,8.10
2023-01-18T01:19:14.171Z,8.65
2023-01-18T01:22:00.147Z,7.85
2023-01-18T01:24:45.753Z,8.55
2023-01-18T01:27:13.883Z,8.55
2023-01-18T01:29:41.120Z,8.02
2023-01-18T01:32:08.707Z,7.72
2023-01-18T01:34:36.070Z,7.55
2023-01-18T01:37:03.931Z,6.88
2023-01-18T01:39:31.948Z,7.57
2023-01-18T01:41:58.699Z,8.45
2023-01-18T01:44:28.426Z,7.68
2023-01-18T01:47:11.670Z,7.28
2023-01-18T01:49:46.395Z,7.32
2023-01-18T01:52:29.608Z,7.32
2023-01-18T01:55:22.977Z,6.75
2023-01-18T01:57:57.783Z,6.63
2023-01-18T02:00:26.980Z,5.80
2023-01-18T02:03:08.817Z,7.15
2023-01-18T02:05:42.919Z,6.55
2023-01-18T02:08:11.691Z,6.65
2023-01-18T02:10:39.241Z,6.28
2023-01-18T02:13:10.065Z,7.07
2023-01-18T02:16:23.890Z,6.60
2023-01-18T02:19:10.633Z,6.45
2023-01-18T02:21:43.377Z,6.22
2023-01-18T02:24:43.046Z,6.55
2023-01-18T02:27:35.567Z,6.68
2023-01-18T02:30:09.413Z,6.93
2023-01-18T02:32:50.143Z,7.20
2023-01-18T02:35:46.606Z,7.22
2023-01-18T02:38:21.107Z,7.00
2023-01-18T02:40:56.917Z,6.95
2023-01-18T02:43:43.800Z,7.65
2023-01-18T02:46:33.141Z,7.60
2023-01-18T02:49:13.011Z,8.18
2023-01-18T02:51:40.118Z,7.07
2023-01-18T02:54:09.887Z,8.27
2023-01-18T02:56:47.219Z,8.35
2023-01-18T02:59:17.339Z,8.15
2023-01-18T03:02:04.911Z,8.60
2023-01-18T03:04:39.663Z,8.23
2023-01-18T03:07:14.188Z,8.55
2023-01-18T03:10:07.396Z,8.77
2023-01-18T03:20:12.900Z,10.27
2023-01-18T03:23:25.052Z,9.85
2023-01-18T03:25:56.205Z,9.65
2023-01-18T03:32:07.204Z,10.73
2023-01-18T03:38:06.281Z,9.30
2023-01-18T03:40:33.304Z,9.98
2023-01-18T03:43:19.833Z,9.30
2023-01-18T03:45:49.707Z,10.55
2023-01-18T03:48:16.879Z,9.10
2023-01-18T04:01:09.935Z,10.15
2023-01-18T04:06:59.036Z,11.10
2023-01-18T04:15:34.395Z,11.20
2023-01-18T04:18:01.999Z,12.50
2023-01-18T04:20:30.800Z,13.23
2023-01-18T04:22:58.989Z,12.32
2023-01-18T04:25:26.031Z,10.23
2023-01-18T04:27:52.704Z,10.20
2023-01-18T04:30:19.512Z,11.43
2023-01-18T04:32:46.407Z,9.60
2023-01-18T04:35:13.691Z,9.98
2023-01-18T04:37:40.433Z,10.15
2023-01-18T04:40:07.899Z,9.32
2023-01-18T04:42:34.581Z,10.30
2023-01-18T04:45:01.394Z,10.27
2023-01-18T04:47:31.383Z,9.85
2023-01-18T04:49:58.131Z,10.25
2023-01-18T04:52:28.167Z,9.52
2023-01-18T04:54:54.803Z,10.00
2023-01-18T04:57:21.567Z,9.40
2023-01-18T04:59:49.684Z,9.85
2023-01-18T05:02:17.052Z,9.15
2023-01-18T05:04:45.393Z,9.43
2023-01-18T05:07:13.235Z,9.50
2023-01-18T05:09:39.975Z,10.77
2023-01-18T05:12:06.836Z,11.68
2023-01-18T05:14:34.459Z,10.80
2023-01-18T05:17:01.209Z,10.93
2023-01-18T05:19:30.587Z,10.65
2023-01-18T05:21:57.327Z,10.50
2023-01-18T05:24:25.326Z,11.05
2023-01-18T05:26:52.086Z,11.45
2023-01-18T05:29:18.788Z,10.75
2023-01-18T05:31:45.583Z,10.55
2023-01-18T05:34:12.420Z,10.73
2023-01-18T05:36:40.503Z,11.77
2023-01-18T05:39:07.238Z,10.50
2023-01-18T05:41:33.944Z,11.57
2023-01-18T05:44:01.791Z,12.23
2023-01-18T05:46:30.149Z,11.63
2023-01-18T05:48:58.965Z,12.73
2023-01-18T05:51:26.147Z,18.60
2023-01-18T05:53:52.806Z,12.73
2023-01-18T05:56:19.628Z,11.40
2023-01-18T05:58:50.685Z,11.60
2023-01-18T06:01:18.658Z,11.85
2023-01-18T06:03:45.411Z,12.25
2023-01-18T06:06:12.246Z,11.38
2023-01-18T06:08:38.950Z,11.98
2023-01-18T06:11:06.455Z,11.55
2023-01-18T06:13:33.758Z,13.85
2023-01-18T06:16:02.501Z,13.30
2023-01-18T06:18:33.367Z,14.32
2023-01-18T06:21:02.674Z,16.38
2023-01-18T06:23:30.187Z,13.20
2023-01-18T06:25:56.979Z,15.52
2023-01-18T06:28:23.952Z,14.00
2023-01-18T06:30:57.709Z,15.45
2023-01-18T06:33:27.042Z,13.80
2023-01-18T06:35:57.424Z,15.13
2023-01-18T06:38:25.464Z,13.95
2023-01-18T06:40:52.143Z,13.82
2023-01-18T06:43:18.938Z,14.77
2023-01-18T06:45:53.503Z,18.85
2023-01-18T06:48:20.248Z,14.25
2023-01-18T06:50:46.894Z,13.85
2023-01-18T06:53:13.775Z,13.85
2023-01-18T06:55:41.054Z,12.68
2023-01-18T06:58:07.767Z,14.38
2023-01-18T07:00:35.014Z,15.15
2023-01-18T07:03:03.139Z,13.95
2023-01-18T07:05:30.135Z,14.40
2023-01-18T07:07:58.382Z,14.80
2023-01-18T07:10:26.630Z,13.38
2023-01-18T07:12:53.303Z,13.23
2023-01-18T07:15:22.556Z,14.63
2023-01-18T07:17:51.053Z,15.30
2023-01-18T07:20:18.477Z,14.73
2023-01-18T07:22:50.045Z,14.60
2023-01-18T07:25:19.718Z,15.63
2023-01-18T07:27:48.747Z,16.00
2023-01-18T07:30:17.229Z,15.52
2023-01-18T07:33:15.016Z,16.73
2023-01-18T07:35:41.714Z,15.43
2023-01-18T07:38:10.641Z,28.73
2023-01-18T07:40:37.354Z,30.30
2023-01-18T07:43:04.904Z,17.02
2023-01-18T07:45:31.535Z,16.15
2023-01-18T07:47:59.989Z,15.77
2023-01-18T07:50:26.673Z,16.13
2023-01-18T07:52:53.365Z,16.83
2023-01-18T07:55:21.675Z,15.35
2023-01-18T07:57:48.433Z,17.63
2023-01-18T08:00:17.329Z,16.17
2023-01-18T08:02:47.252Z,15.82
2023-01-18T08:05:15.006Z,16.63
2023-01-18T08:07:41.922Z,25.85
2023-01-18T08:10:09.124Z,17.35
2023-01-18T08:12:37.384Z,17.13
2023-01-18T08:15:04.553Z,17.48
2023-01-18T08:17:31.348Z,16.23
2023-01-18T08:19:58.039Z,18.52
2023-01-18T08:22:24.721Z,16.58
2023-01-18T08:24:52.444Z,17.73
2023-01-18T08:27:19.321Z,18.25
2023-01-18T08:29:47.880Z,17.73
2023-01-18T08:32:15.303Z,18.73
2023-01-18T08:34:42.680Z,17.25
2023-01-18T08:37:09.403Z,15.95
2023-01-18T08:39:36.096Z,17.92
2023-01-18T08:42:02.884Z,16.85
2023-01-18T08:44:29.644Z,16.20
2023-01-18T08:46:56.376Z,16.05
2023-01-18T08:49:24.664Z,15.18
2023-01-18T08:51:52.154Z,15.30
2023-01-18T08:54:19.059Z,16.33
2023-01-18T08:56:47.856Z,15.85
2023-01-18T08:59:14.561Z,14.23
2023-01-18T09:01:41.313Z,16.85
2023-01-18T09:04:09.897Z,15.27
2023-01-18T09:06:36.713Z,15.07
2023-01-18T09:09:05.317Z,14.38
2023-01-18T09:11:32.420Z,15.65
2023-01-18T09:14:01.420Z,15.75
2023-01-18T09:16:30.052Z,14.98
2023-01-18T09:18:58.499Z,14.82
2023-01-18T09:21:28.275Z,15.40
2023-01-18T09:23:55.319Z,16.80
2023-01-18T09:26:22.051Z,16.00
2023-01-18T09:28:52.601Z,14.25
2023-01-18T09:31:24.798Z,13.75
2023-01-18T09:33:53.908Z,17.98
2023-01-18T09:36:26.256Z,14.30
2023-01-18T09:38:54.338Z,12.98
2023-01-18T09:41:43.176Z,13.23
2023-01-18T09:44:17.553Z,14.85
2023-01-18T09:46:45.634Z,14.70
2023-01-18T09:49:21.870Z,16.20
2023-01-18T09:52:05.224Z,12.73
2023-01-18T09:54:52.889Z,12.10
2023-01-18T09:57:50.705Z,12.35
2023-01-18T10:00:24.656Z,12.02
2023-01-18T10:05:23.870Z,10.55
2023-01-18T10:08:02.610Z,10.70
2023-01-18T10:10:51.751Z,11.43
2023-01-18T10:13:47.864Z,11.07
2023-01-18T10:16:15.370Z,11.05
2023-01-18T10:18:48.234Z,10.93
2023-01-18T10:21:29.700Z,9.50
2023-01-18T10:24:28.929Z,9.43
2023-01-18T10:27:10.868Z,9.45
2023-01-18T10:29:48.014Z,8.52
2023-01-18T10:32:20.761Z,7.97
2023-01-18T10:34:52.106Z,7.40
2023-01-18T10:37:43.587Z,8.35
2023-01-18T10:40:12.571Z,8.20
2023-01-18T10:42:45.379Z,8.13
2023-01-18T10:45:20.279Z,8.05
2023-01-18T10:47:49.267Z,8.20
2023-01-18T10:50:42.342Z,9.05
2023-01-18T10:53:25.135Z,7.80
2023-01-18T10:56:25.754Z,7.63
2023-01-18T10:58:59.216Z,9.38
2023-01-18T11:01:29.258Z,7.60
2023-01-18T11:04:24.760Z,6.57
2023-01-18T11:06:55.827Z,7.00
2023-01-18T11:09:48.632Z,7.47
2023-01-18T11:12:43.398Z,9.23
2023-01-18T11:17:58.720Z,6.70
2023-01-18T11:20:34.554Z,5.82
2023-01-18T11:23:09.015Z,6.75
2023-01-18T11:25:40.174Z,5.60
2023-01-18T11:28:19.548Z,4.68
2023-01-18T11:31:35.173Z,4.63
2023-01-18T11:34:07.062Z,4.55
2023-01-18T11:36:38.733Z,5.00
2023-01-18T11:39:40.480Z,4.82
2023-01-18T11:42:30.445Z,4.20
2023-01-18T11:45:21.849Z,4.22
2023-01-18T11:48:30.224Z,4.97
2023-01-18T11:51:08.836Z,4.63
2023-01-18T11:54:02.668Z,3.10
2023-01-18T11:56:45.298Z,3.47
2023-01-18T11:59:23.011Z,3.25
2023-01-18T12:02:02.171Z,3.42
2023-01-18T12:04:39.957Z,3.38
2023-01-18T12:07:49.906Z,4.18
2023-01-18T12:10:34.132Z,4.22
2023-01-18T12:13:34.272Z,3.92
2023-01-18T12:16:33.509Z,4.25
2023-01-18T12:19:15.624Z,3.88
2023-01-18T12:22:19.813Z,4.20
2023-01-18T12:25:35.392Z,3.78
2023-01-18T12:28:42.133Z,3.67
2023-01-18T12:31:15.150Z,4.28
2023-01-18T12:33:55.917Z,3.78
2023-01-18T12:36:52.304Z,3.22
2023-01-18T12:39:40.133Z,3.22
2023-01-18T12:42:32.798Z,3.55
2023-01-18T12:45:24.118Z,4.50
2023-01-18T12:48:19.091Z,2.90
2023-01-18T12:50:51.521Z,3.20
2023-01-18T12:53:51.147Z,3.90
2023-01-18T12:56:32.827Z,3.33
2023-01-18T12:59:08.387Z,3.55
2023-01-18T13:01:46.741Z,3.63
2023-01-18T13:07:48.046Z,3.10
2023-01-18T13:10:26.284Z,3.17
2023-01-18T13:22:53.657Z,3.58
2023-01-18T13:28:35.198Z,3.60
2023-01-18T13:31:09.975Z,3.47
2023-01-18T13:42:47.668Z,3.53
2023-01-18T13:45:37.196Z,3.30
2023-01-18T13:52:01.071Z,3.92
2023-01-18T13:57:23.398Z,3.38
2023-01-18T14:09:32.164Z,3.20
2023-01-18T14:12:11.088Z,3.20
2023-01-18T14:21:12.357Z,3.67
2023-01-18T14:35:30.008Z,3.10
2023-01-18T14:44:04.634Z,4.13
2023-01-18T14:46:42.761Z,3.95
2023-01-18T14:49:20.285Z,3.72
2023-01-18T15:01:31.474Z,3.90
2023-01-18T15:04:13.182Z,4.00
2023-01-18T15:10:07.743Z,3.90
2023-01-18T15:12:43.414Z,4.07
2023-01-18T15:18:23.622Z,4.28
2023-01-18T15:33:05.925Z,4.93
2023-01-18T15:35:41.208Z,7.13
2023-01-18T15:43:54.577Z,4.90
2023-01-18T15:46:28.938Z,5.35
2023-01-18T15:48:58.810Z,4.57
2023-01-18T15:51:50.835Z,5.85
2023-01-18T15:55:01.743Z,5.07
2023-01-18T16:00:45.927Z,5.15
2023-01-18T16:06:49.563Z,5.72
2023-01-18T16:12:07.720Z,5.70
2023-01-18T16:14:35.622Z,6.40
2023-01-18T16:17:24.711Z,6.78
2023-01-18T16:19:54.824Z,5.00
2023-01-18T16:22:31.826Z,4.85
2023-01-18T16:25:02.836Z,4.97
2023-01-18T16:27:32.911Z,5.30
2023-01-18T16:30:17.775Z,5.70
2023-01-18T16:32:44.760Z,6.15
2023-01-18T16:35:17.897Z,7.03
2023-01-18T16:37:45.556Z,6.00
2023-01-18T16:40:18.489Z,4.85
2023-01-18T16:43:05.969Z,5.65
2023-01-18T16:45:38.390Z,5.75
2023-01-18T16:48:06.038Z,5.55
2023-01-18T16:50:32.883Z,5.90
2023-01-18T16:53:00.673Z,6.35
2023-01-18T16:55:27.599Z,6.15
2023-01-18T16:57:54.310Z,8.88
2023-01-18T17:00:28.466Z,7.93
2023-01-18T17:02:55.628Z,6.65
2023-01-18T17:05:22.898Z,5.90
2023-01-18T17:07:52.239Z,7.00
2023-01-18T17:10:31.733Z,9.02
2023-01-18T17:13:00.217Z,9.15
2023-01-18T17:15:32.661Z,8.55
2023-01-18T17:17:59.698Z,8.55
2023-01-18T17:20:27.618Z,6.95
2023-01-18T17:22:55.693Z,7.18
2023-01-18T17:25:24.392Z,8.70
2023-01-18T17:27:51.634Z,7.28
2023-01-18T17:30:21.589Z,8.90
2023-01-18T17:32:49.525Z,7.55
2023-01-18T17:35:18.549Z,7.25
2023-01-18T17:37:45.827Z,8.52
2023-01-18T17:40:23.523Z,7.20
2023-01-18T17:42:52.743Z,8.45
2023-01-18T17:45:21.600Z,8.73
2023-01-18T17:47:48.346Z,7.38
2023-01-18T17:50:22.631Z,8.23
2023-01-18T17:52:51.732Z,9.13
2023-01-18T17:55:24.334Z,9.20
2023-01-18T17:57:57.406Z,8.98
2023-01-18T18:00:24.195Z,9.85
2023-01-18T18:02:52.718Z,10.90
2023-01-18T18:05:20.339Z,12.43
2023-01-18T18:07:49.695Z,17.15
2023-01-18T18:10:17.247Z,15.60
2023-01-18T18:12:44.226Z,15.15
2023-01-18T18:15:11.126Z,12.05
2023-01-18T18:17:38.871Z,10.45
2023-01-18T18:20:07.185Z,8.23
2023-01-18T18:22:34.879Z,7.53
2023-01-18T18:25:03.799Z,7.38
2023-01-18T18:27:44.702Z,6.90
2023-01-18T18:30:14.374Z,8.80
2023-01-18T18:32:41.138Z,6.90
2023-01-18T18:35:23.096Z,6.03
2023-01-18T18:37:51.125Z,6.30
2023-01-18T18:40:20.198Z,6.88
2023-01-18T18:43:00.624Z,6.95
2023-01-18T18:45:29.456Z,7.55
2023-01-18T18:47:57.149Z,7.10
2023-01-18T18:50:24.042Z,11.73
2023-01-18T18:52:50.725Z,13.32
2023-01-18T18:55:18.018Z,7.72
2023-01-18T18:57:45.527Z,7.38
2023-01-18T19:00:13.139Z,5.57
2023-01-18T19:02:40.290Z,5.70
2023-01-18T19:05:07.985Z,6.15
2023-01-18T19:07:36.643Z,5.72
2023-01-18T19:10:05.147Z,6.07
2023-01-18T19:12:32.091Z,5.43
2023-01-18T19:14:59.580Z,5.30
2023-01-18T19:17:30.728Z,5.53
2023-01-18T19:19:58.939Z,5.60
2023-01-18T19:22:26.890Z,5.32
2023-01-18T19:24:54.185Z,5.20
2023-01-18T19:27:21.859Z,5.90
2023-01-18T19:29:52.977Z,5.35
2023-01-18T19:32:20.154Z,5.68
2023-01-18T19:34:49.510Z,5.35
2023-01-18T19:37:16.432Z,5.30
2023-01-18T19:39:45.499Z,5.32
2023-01-18T19:42:13.850Z,5.45
2023-01-18T19:44:40.574Z,5.75
2023-01-18T19:47:09.776Z,5.30
2023-01-18T19:52:43.646Z,4.75
2023-01-18T19:55:10.597Z,6.03
2023-01-18T19:57:37.269Z,4.95
2023-01-18T20:00:07.016Z,4.78
2023-01-18T20:02:42.858Z,5.60
2023-01-18T20:05:10.379Z,5.13
2023-01-18T20:07:42.325Z,6.40
2023-01-18T20:10:11.689Z,5.35
2023-01-18T20:12:39.132Z,5.35
2023-01-18T20:15:06.413Z,5.70
2023-01-18T20:17:33.159Z,5.57
2023-01-18T20:20:02.257Z,5.90
2023-01-18T20:22:29.034Z,5.13
2023-01-18T20:24:56.130Z,4.68
2023-01-18T20:27:23.734Z,5.53
2023-01-18T20:29:51.224Z,5.50
2023-01-18T20:32:20.145Z,5.32
2023-01-18T20:34:47.712Z,5.53
2023-01-18T20:37:17.384Z,5.45
2023-01-18T20:39:45.517Z,5.43
2023-01-18T20:42:13.549Z,6.10
2023-01-18T20:44:40.859Z,5.50
2023-01-18T20:47:08.064Z,5.68
2023-01-18T20:49:38.974Z,5.70
2023-01-18T20:52:07.253Z,6.50
2023-01-18T20:54:36.308Z,6.28
2023-01-18T20:57:04.526Z,6.60
2023-01-18T20:59:31.312Z,6.43
2023-01-18T21:01:58.240Z,6.05
2023-01-18T21:04:25.438Z,6.80
2023-01-18T21:06:53.846Z,5.88
2023-01-18T21:09:20.538Z,6.13
2023-01-18T21:11:47.277Z,6.35
2023-01-18T21:14:14.436Z,5.95
2023-01-18T21:16:41.496Z,6.05
2023-01-18T21:19:11.138Z,6.45
2023-01-18T21:21:37.833Z,6.35
2023-01-18T21:24:05.076Z,5.57
2023-01-18T21:26:31.788Z,6.25
2023-01-18T21:28:59.326Z,6.65
2023-01-18T21:31:26.114Z,5.75
2023-01-18T21:33:54.119Z,5.88
2023-01-18T21:36:22.917Z,6.20
2023-01-18T21:38:50.263Z,6.25
2023-01-18T21:41:35.965Z,6.00
2023-01-18T21:44:21.359Z,6.47
2023-01-18T21:46:49.479Z,5.50
2023-01-18T21:49:57.725Z,6.32
2023-01-18T21:52:40.408Z,6.10
2023-01-18T21:55:07.343Z,7.53
2023-01-18T21:57:35.029Z,6.22
2023-01-18T22:00:02.211Z,6.50
2023-01-18T22:02:28.929Z,6.55
2023-01-18T22:05:05.888Z,6.20
2023-01-18T22:07:35.173Z,7.00
2023-01-18T22:10:05.611Z,6.70
2023-01-18T22:12:36.405Z,6.20
2023-01-18T22:15:05.506Z,6.53
2023-01-18T22:17:32.999Z,6.22
2023-01-18T22:20:00.201Z,6.25
2023-01-18T22:22:27.084Z,6.20
2023-01-18T22:24:53.844Z,6.28
2023-01-18T22:27:20.556Z,6.10
2023-01-18T22:29:47.260Z,6.90
2023-01-18T22:32:14.044Z,6.63
2023-01-18T22:34:41.786Z,6.82
2023-01-18T22:37:08.524Z,6.93
2023-01-18T22:39:35.212Z,6.85
2023-01-18T22:42:01.898Z,7.35
2023-01-18T22:44:28.620Z,7.90
2023-01-18T22:46:55.300Z,7.32
2023-01-18T22:49:22.604Z,7.65
2023-01-18T22:51:49.260Z,8.00
2023-01-18T22:54:15.980Z,7.85
2023-01-18T22:56:45.516Z,7.85
2023-01-18T22:59:13.376Z,8.10
2023-01-18T23:01:40.312Z,8.45
2023-01-18T23:04:07.041Z,8.93
2023-01-18T23:06:45.800Z,8.65
2023-01-18T23:09:14.875Z,8.65
2023-01-18T23:11:41.602Z,8.32
2023-01-18T23:14:27.433Z,9.00
2023-01-18T23:17:12.963Z,8.43
2023-01-18T23:19:39.711Z,8.80
2023-01-18T23:22:09.388Z,9.25
2023-01-18T23:24:37.528Z,9.02
2023-01-18T23:27:07.756Z,9.60
2023-01-18T23:29:34.505Z,8.57
2023-01-18T23:32:01.405Z,10.63
2023-01-18T23:34:28.121Z,11.55
2023-01-18T23:36:55.317Z,10.35
2023-01-18T23:39:40.859Z,9.88
2023-01-18T23:42:27.549Z,10.23
2023-01-18T23:45:12.751Z,9.68
2023-01-18T23:47:59.049Z,9.57
2023-01-18T23:50:44.524Z,9.00
2023-01-18T23:53:31.401Z,9.43
2023-01-18T23:55:58.421Z,9.27
2023-01-18T23:58:27.826Z,9.90
